Time;durP1;ratioP1;P1;durP2;ratioP2;P2;SDS_P1;SDS_P2;PMS_P1;PMS_P2;Temp;Humidity;BMP_temperature;BMP_pressure;BME280_temperature;BME280_humidity;BME280_pressure;Samples;Min_cycle;Max_cycle;Signal;HPM_P1;HPM_P2
2023/05/31 00:02:24;;;;;;;1.10;1.00;;;16.20;47.00;;;;;;5117600;28;21118;-69
2023/05/31 00:04:51;;;;;;;0.90;0.80;;;16.30;46.60;;;;;;5116329;28;20624;-69
2023/05/31 00:07:18;;;;;;;1.07;1.03;;;16.10;46.60;;;;;;5116931;28;20761;-69
2023/05/31 00:09:45;;;;;;;1.37;1.20;;;16.10;46.40;;;;;;5119434;28;20671;-69
2023/05/31 00:12:12;;;;;;;0.80;0.80;;;16.10;46.40;;;;;;5119594;28;20647;-69
2023/05/31 00:14:40;;;;;;;1.07;0.80;;;16.10;47.20;;;;;;5117255;28;20618;-69
2023/05/31 00:17:07;;;;;;;1.17;1.07;;;16.00;46.30;;;;;;5116108;28;20650;-69
2023/05/31 00:19:33;;;;;;;0.80;0.80;;;16.10;46.30;;;;;;5116762;28;20631;-69
2023/05/31 00:22:00;;;;;;;0.97;0.70;;;16.10;46.70;;;;;;5119708;28;21092;-69
2023/05/31 00:24:27;;;;;;;1.03;0.90;;;16.00;46.10;;;;;;5120175;28;20632;-69
2023/05/31 00:26:54;;;;;;;2.27;0.97;;;16.00;45.80;;;;;;5116537;28;20646;-69
2023/05/31 00:29:20;;;;;;;0.50;0.50;;;16.00;45.90;;;;;;5114705;28;20673;-69
2023/05/31 00:31:49;;;;;;;1.33;1.13;;;15.90;45.60;;;;;;5117473;27;20661;-69
2023/05/31 00:34:15;;;;;;;0.80;0.77;;;16.00;46.20;;;;;;5119048;28;20619;-69
2023/05/31 00:36:42;;;;;;;1.13;0.90;;;15.90;46.50;;;;;;5119419;27;20644;-69
2023/05/31 00:39:10;;;;;;;2.30;1.63;;;15.80;46.40;;;;;;5107676;28;20621;-69
2023/05/31 00:41:36;;;;;;;1.03;0.77;;;15.80;45.80;;;;;;5115946;28;20653;-69
2023/05/31 00:44:03;;;;;;;1.47;0.97;;;15.90;46.20;;;;;;5118392;27;20621;-69
2023/05/31 00:46:33;;;;;;;1.50;1.40;;;15.80;46.50;;;;;;5119365;28;20647;-69
2023/05/31 00:49:01;;;;;;;0.63;0.63;;;15.80;45.80;;;;;;5118615;28;20665;-69
2023/05/31 00:51:30;;;;;;;0.77;0.77;;;15.80;46.10;;;;;;5116387;27;20672;-69
2023/05/31 00:53:58;;;;;;;1.03;0.90;;;15.80;46.50;;;;;;5116320;28;20875;-69
2023/05/31 00:56:25;;;;;;;1.03;0.80;;;15.80;46.80;;;;;;5119243;28;20647;-69
2023/05/31 00:58:53;;;;;;;0.90;0.70;;;15.80;46.50;;;;;;5114257;28;20706;-69
2023/05/31 01:01:21;;;;;;;2.17;1.30;;;15.80;46.90;;;;;;5116852;28;20648;-69
2023/05/31 01:03:48;;;;;;;1.00;0.77;;;15.80;46.30;;;;;;5121614;27;20621;-69
2023/05/31 01:06:16;;;;;;;1.90;1.03;;;15.70;46.90;;;;;;5121995;27;21002;-69
2023/05/31 01:08:43;;;;;;;1.10;1.00;;;15.80;46.30;;;;;;5117914;27;20684;-69
2023/05/31 01:11:17;;;;;;;1.43;1.30;;;15.70;47.30;;;;;;5119541;27;20744;-69
2023/05/31 01:13:52;;;;;;;2.60;1.20;;;15.60;46.90;;;;;;5122259;27;20620;-69
2023/05/31 01:16:27;;;;;;;5.60;1.00;;;15.70;46.80;;;;;;5122982;27;20845;-69
2023/05/31 01:19:02;;;;;;;0.80;0.80;;;15.60;46.70;;;;;;5111448;27;20620;-68
2023/05/31 01:21:53;;;;;;;0.70;0.70;;;15.60;47.10;;;;;;5119196;27;20643;-68
2023/05/31 01:24:27;;;;;;;1.70;1.00;;;15.50;47.70;;;;;;5114229;27;20619;-68
2023/05/31 01:27:01;;;;;;;0.83;0.83;;;15.50;47.10;;;;;;5122117;27;21018;-68
2023/05/31 01:29:33;;;;;;;0.90;0.70;;;15.50;46.70;;;;;;5121058;27;20672;-69
2023/05/31 01:32:02;;;;;;;1.63;1.00;;;15.50;47.30;;;;;;5118617;27;21166;-68
2023/05/31 01:34:28;;;;;;;1.10;1.10;;;15.50;47.10;;;;;;5118857;27;20639;-68
2023/05/31 01:36:55;;;;;;;1.93;1.10;;;15.50;47.30;;;;;;5120386;27;20646;-68
2023/05/31 01:39:22;;;;;;;1.20;1.10;;;15.40;47.40;;;;;;5122020;27;20646;-68
2023/05/31 01:41:51;;;;;;;0.70;0.70;;;15.40;47.40;;;;;;5114394;27;20751;-68
2023/05/31 01:44:21;;;;;;;1.63;1.00;;;15.30;47.20;;;;;;5122419;27;20628;-68
2023/05/31 01:46:49;;;;;;;1.33;1.13;;;15.50;47.00;;;;;;5122080;27;20772;-68
2023/05/31 01:49:17;;;;;;;0.83;0.83;;;15.40;47.00;;;;;;5118066;27;20664;-68
2023/05/31 01:51:49;;;;;;;2.10;0.83;;;15.40;47.00;;;;;;5118638;27;20764;-68
2023/05/31 01:54:16;;;;;;;1.73;0.80;;;15.30;46.90;;;;;;5121041;27;20681;-68
2023/05/31 01:56:45;;;;;;;0.93;0.93;;;15.20;47.10;;;;;;5121936;27;20654;-68
2023/05/31 01:59:14;;;;;;;2.83;1.33;;;15.30;47.40;;;;;;5114642;27;20623;-68
2023/05/31 02:01:43;;;;;;;1.90;1.20;;;15.20;47.30;;;;;;5121135;27;20663;-68
2023/05/31 02:04:09;;;;;;;1.83;1.20;;;15.20;46.90;;;;;;5121896;27;21002;-68
2023/05/31 02:06:37;;;;;;;1.17;1.00;;;15.20;47.10;;;;;;5110070;27;20641;-68
2023/05/31 02:09:07;;;;;;;0.73;0.67;;;15.20;47.20;;;;;;5117908;27;21034;-68
2023/05/31 02:11:34;;;;;;;1.50;0.80;;;15.20;47.40;;;;;;5120916;27;20662;-68
2023/05/31 02:14:01;;;;;;;1.90;1.50;;;15.00;47.00;;;;;;5121470;27;21202;-68
2023/05/31 02:16:28;;;;;;;1.03;0.60;;;15.00;48.20;;;;;;5120597;27;20647;-68
2023/05/31 02:18:58;;;;;;;3.13;1.53;;;14.90;47.60;;;;;;5118001;27;20632;-68
2023/05/31 02:21:25;;;;;;;5.10;1.33;;;14.90;48.20;;;;;;5118162;27;21055;-68
2023/05/31 02:23:51;;;;;;;1.17;0.90;;;14.80;48.60;;;;;;5121510;27;20728;-68
2023/05/31 02:26:18;;;;;;;0.87;0.87;;;14.70;50.10;;;;;;5121403;27;20700;-68
2023/05/31 02:28:45;;;;;;;0.97;0.87;;;14.70;49.10;;;;;;5118488;27;21128;-68
2023/05/31 02:31:12;;;;;;;0.77;0.70;;;14.60;49.60;;;;;;5116599;27;20660;-68
2023/05/31 02:33:41;;;;;;;1.30;1.20;;;14.70;48.60;;;;;;5118112;27;20618;-68
2023/05/31 02:36:10;;;;;;;1.63;1.27;;;14.70;49.20;;;;;;5109733;27;21388;-69
2023/05/31 02:38:37;;;;;;;1.43;0.73;;;14.60;50.00;;;;;;5118043;27;20866;-68
2023/05/31 02:41:05;;;;;;;1.20;1.00;;;14.60;49.10;;;;;;5117246;27;20648;-68
2023/05/31 02:43:32;;;;;;;1.37;0.63;;;14.70;48.50;;;;;;5117749;27;20628;-68
2023/05/31 02:46:01;;;;;;;1.87;1.20;;;14.70;48.10;;;;;;5118773;27;20800;-68
2023/05/31 02:48:30;;;;;;;0.90;0.80;;;14.70;49.10;;;;;;5121339;27;20647;-68
2023/05/31 02:50:57;;;;;;;2.47;1.30;;;14.50;49.50;;;;;;5119968;27;20646;-68
2023/05/31 02:53:26;;;;;;;1.33;1.00;;;14.40;50.00;;;;;;5117636;27;20964;-68
2023/05/31 02:55:54;;;;;;;1.30;0.70;;;14.50;49.00;;;;;;5117313;27;20680;-68
2023/05/31 02:58:21;;;;;;;3.57;1.17;;;14.50;49.20;;;;;;5119960;27;20620;-68
2023/05/31 03:00:47;;;;;;;1.13;1.03;;;14.40;48.80;;;;;;5116931;27;20665;-68
2023/05/31 03:03:18;;;;;;;0.93;0.87;;;14.40;49.60;;;;;;5118355;27;20622;-69
2023/05/31 03:05:46;;;;;;;2.20;0.90;;;14.40;49.50;;;;;;5120726;27;20662;-68
2023/05/31 03:08:13;;;;;;;0.90;0.90;;;14.40;49.40;;;;;;5120812;27;20618;-68
2023/05/31 03:10:41;;;;;;;2.50;1.20;;;14.30;50.60;;;;;;5108188;27;21030;-68
2023/05/31 03:13:09;;;;;;;2.00;1.03;;;14.20;51.10;;;;;;5117528;27;21181;-68
2023/05/31 03:15:37;;;;;;;1.07;0.80;;;14.00;50.80;;;;;;5119123;27;20644;-68
2023/05/31 03:18:05;;;;;;;1.50;1.20;;;13.90;51.70;;;;;;5120664;27;20620;-68
2023/05/31 03:20:33;;;;;;;0.93;0.87;;;13.80;51.80;;;;;;5118688;27;20668;-68
2023/05/31 03:23:00;;;;;;;2.00;0.90;;;13.70;52.10;;;;;;5116735;27;21098;-68
2023/05/31 03:25:28;;;;;;;1.43;1.23;;;13.70;52.30;;;;;;5116762;27;21214;-68
2023/05/31 03:27:58;;;;;;;2.10;1.43;;;13.80;52.30;;;;;;5117191;27;20676;-68
2023/05/31 03:30:25;;;;;;;0.90;0.90;;;13.80;51.10;;;;;;5105211;28;20664;-68
2023/05/31 03:32:52;;;;;;;1.20;0.90;;;13.90;50.60;;;;;;5118732;27;20670;-68
2023/05/31 03:35:19;;;;;;;1.10;0.90;;;13.80;51.40;;;;;;5119442;27;20612;-68
2023/05/31 03:37:46;;;;;;;1.47;0.90;;;13.80;50.90;;;;;;5119748;27;20626;-68
2023/05/31 03:40:13;;;;;;;1.20;0.53;;;13.90;50.60;;;;;;5116409;27;20681;-68
2023/05/31 03:42:40;;;;;;;2.10;1.27;;;13.90;51.50;;;;;;5116429;28;20624;-68
2023/05/31 03:45:09;;;;;;;1.53;1.30;;;13.90;51.40;;;;;;5117793;27;20623;-68
2023/05/31 03:47:36;;;;;;;1.40;1.20;;;13.90;50.60;;;;;;5116847;27;20633;-68
2023/05/31 03:50:04;;;;;;;2.83;1.20;;;14.00;50.80;;;;;;5116367;28;20676;-68
2023/05/31 03:52:31;;;;;;;1.43;1.23;;;14.00;50.90;;;;;;5120048;28;20622;-68
2023/05/31 03:54:57;;;;;;;0.70;0.70;;;14.00;50.50;;;;;;5120245;28;20628;-68
2023/05/31 03:57:24;;;;;;;1.40;1.30;;;14.00;50.70;;;;;;5117199;27;21061;-68
2023/05/31 03:59:51;;;;;;;2.57;1.00;;;14.10;51.00;;;;;;5116222;28;20611;-68
2023/05/31 04:02:19;;;;;;;1.60;0.90;;;14.10;51.00;;;;;;5118028;28;20662;-68
2023/05/31 04:04:46;;;;;;;1.30;0.73;;;14.10;51.30;;;;;;5116236;28;20627;-68
2023/05/31 04:07:13;;;;;;;1.03;0.93;;;14.10;51.30;;;;;;5116872;28;20657;-68
2023/05/31 04:09:39;;;;;;;1.47;0.90;;;14.10;51.10;;;;;;5107749;28;20664;-68
2023/05/31 04:12:07;;;;;;;0.93;0.80;;;14.30;51.10;;;;;;5116600;27;20646;-68
2023/05/31 04:14:34;;;;;;;0.57;0.57;;;14.30;51.40;;;;;;5118342;28;20615;-68
2023/05/31 04:17:00;;;;;;;0.90;0.90;;;14.20;51.50;;;;;;5119075;27;21032;-68
2023/05/31 04:19:29;;;;;;;0.80;0.80;;;14.40;51.30;;;;;;5119202;28;20982;-68
2023/05/31 04:21:55;;;;;;;1.17;0.90;;;14.30;51.50;;;;;;5116367;28;20644;-68
2023/05/31 04:24:22;;;;;;;1.77;0.80;;;14.40;51.10;;;;;;5116544;28;20712;-68
2023/05/31 04:26:49;;;;;;;2.27;1.10;;;14.50;51.30;;;;;;5119242;28;20663;-68
2023/05/31 04:29:17;;;;;;;1.20;1.10;;;14.50;51.60;;;;;;5118180;28;20622;-68
2023/05/31 04:31:44;;;;;;;1.10;0.87;;;14.50;51.80;;;;;;5117726;28;20678;-68
2023/05/31 04:34:17;;;;;;;1.20;1.13;;;14.60;51.50;;;;;;5116652;28;20633;-68
2023/05/31 04:36:48;;;;;;;0.90;0.73;;;14.70;51.00;;;;;;5117379;27;20697;-68
2023/05/31 04:39:15;;;;;;;1.27;0.97;;;14.70;51.20;;;;;;5122945;27;20651;-68
2023/05/31 04:41:42;;;;;;;11.63;1.33;;;14.80;50.90;;;;;;5115988;27;20654;-68
2023/05/31 04:44:09;;;;;;;1.73;1.10;;;14.80;50.50;;;;;;5122449;27;21188;-68
2023/05/31 04:46:36;;;;;;;3.70;1.00;;;14.90;50.60;;;;;;5123157;27;20635;-68
2023/05/31 04:49:04;;;;;;;1.97;1.20;;;14.80;51.10;;;;;;5121709;27;20672;-68
2023/05/31 04:51:31;;;;;;;1.40;0.90;;;14.80;51.00;;;;;;5119738;27;21096;-69
2023/05/31 04:54:00;;;;;;;1.13;1.03;;;14.90;50.90;;;;;;5120627;27;20625;-69
2023/05/31 04:56:27;;;;;;;1.23;1.03;;;15.00;50.70;;;;;;5111870;27;20654;-68
2023/05/31 04:58:54;;;;;;;0.97;0.87;;;14.90;50.70;;;;;;5118876;27;20618;-68
2023/05/31 05:01:20;;;;;;;1.40;1.30;;;15.10;50.90;;;;;;5121655;27;20659;-68
2023/05/31 05:03:47;;;;;;;0.97;0.90;;;15.10;51.50;;;;;;5123241;27;20620;-69
2023/05/31 05:06:15;;;;;;;1.60;1.23;;;15.30;51.10;;;;;;5122524;27;20650;-69
2023/05/31 05:08:42;;;;;;;2.73;1.17;;;15.30;50.30;;;;;;5120149;27;20663;-69
2023/05/31 05:11:10;;;;;;;1.50;1.00;;;15.30;50.50;;;;;;5118841;27;21039;-69
2023/05/31 05:13:38;;;;;;;1.57;0.80;;;15.40;52.00;;;;;;5122292;27;20732;-69
2023/05/31 05:16:05;;;;;;;0.77;0.77;;;15.30;51.80;;;;;;5122870;27;20655;-69
2023/05/31 05:18:32;;;;;;;0.93;0.50;;;15.40;50.60;;;;;;5121520;27;20627;-68
2023/05/31 05:20:59;;;;;;;1.10;0.80;;;15.50;50.60;;;;;;5105986;28;20646;-68
2023/05/31 05:23:26;;;;;;;1.07;0.97;;;15.60;50.70;;;;;;5118830;27;20708;-68
2023/05/31 05:25:52;;;;;;;1.07;0.80;;;15.60;50.40;;;;;;5121297;27;20658;-68
2023/05/31 05:28:22;;;;;;;1.90;0.87;;;15.80;50.10;;;;;;5122228;27;21195;-68
2023/05/31 05:30:49;;;;;;;1.10;0.90;;;15.80;50.40;;;;;;5117978;27;20728;-68
2023/05/31 05:33:15;;;;;;;1.83;1.10;;;15.90;49.80;;;;;;5118413;27;20657;-68
2023/05/31 05:35:42;;;;;;;0.87;0.87;;;16.00;50.10;;;;;;5118954;27;21230;-68
2023/05/31 05:38:09;;;;;;;1.47;1.33;;;16.00;50.20;;;;;;5121392;27;20644;-68
2023/05/31 05:40:36;;;;;;;0.93;0.80;;;15.90;50.10;;;;;;5120555;27;21312;-68
2023/05/31 05:43:03;;;;;;;0.70;0.70;;;15.90;50.00;;;;;;5119859;27;20620;-68
2023/05/31 05:45:31;;;;;;;0.70;0.70;;;16.00;49.30;;;;;;5118174;27;20657;-68
2023/05/31 05:47:58;;;;;;;0.90;0.70;;;16.10;49.70;;;;;;5119653;27;20622;-68
2023/05/31 05:50:26;;;;;;;1.50;0.80;;;16.10;50.10;;;;;;5120101;27;20695;-68
2023/05/31 05:52:53;;;;;;;1.03;0.90;;;16.20;50.00;;;;;;5121205;27;21015;-68
2023/05/31 05:55:20;;;;;;;2.07;1.40;;;16.30;50.40;;;;;;5117630;27;20621;-68
2023/05/31 05:57:47;;;;;;;1.13;1.10;;;16.40;50.10;;;;;;5118558;27;20640;-68
2023/05/31 06:00:15;;;;;;;3.90;1.37;;;16.50;49.30;;;;;;5119880;27;20984;-68
2023/05/31 06:02:43;;;;;;;1.63;1.07;;;16.50;49.70;;;;;;5118030;27;21199;-68
2023/05/31 06:05:10;;;;;;;1.57;1.47;;;16.70;50.70;;;;;;5121336;27;20621;-68
2023/05/31 06:07:37;;;;;;;1.40;1.10;;;16.70;50.30;;;;;;5117489;27;20630;-68
2023/05/31 06:10:04;;;;;;;0.87;0.63;;;16.70;49.30;;;;;;5117211;27;20663;-68
2023/05/31 06:12:31;;;;;;;1.07;0.90;;;16.70;49.70;;;;;;5119900;27;20665;-68
2023/05/31 06:14:58;;;;;;;1.50;1.10;;;16.90;49.90;;;;;;5121682;27;20629;-68
2023/05/31 06:17:25;;;;;;;1.43;0.83;;;17.00;49.50;;;;;;5120091;27;20713;-68
2023/05/31 06:19:53;;;;;;;3.30;1.23;;;17.00;49.50;;;;;;5116829;27;20993;-69
2023/05/31 06:22:20;;;;;;;0.87;0.87;;;17.10;49.80;;;;;;5117850;27;20645;-68
2023/05/31 06:24:47;;;;;;;1.80;0.90;;;17.20;50.20;;;;;;5120430;27;20827;-68
2023/05/31 06:27:14;;;;;;;1.40;1.03;;;17.30;49.50;;;;;;5120948;27;20683;-68
2023/05/31 06:29:41;;;;;;;1.00;0.80;;;17.40;50.00;;;;;;5118353;27;20622;-68
2023/05/31 06:32:08;;;;;;;2.60;1.10;;;17.40;49.30;;;;;;5117145;27;20668;-68
2023/05/31 06:34:35;;;;;;;3.70;1.53;;;17.20;49.20;;;;;;5116833;27;20626;-68
2023/05/31 06:37:03;;;;;;;1.10;1.10;;;17.40;49.60;;;;;;5120539;27;20644;-68
2023/05/31 06:39:30;;;;;;;0.93;0.73;;;17.40;49.10;;;;;;5119831;27;20626;-68
2023/05/31 06:41:59;;;;;;;2.97;1.50;;;17.50;49.50;;;;;;5112555;27;20987;-68
2023/05/31 06:44:26;;;;;;;1.63;1.33;;;17.50;48.90;;;;;;5120544;27;20623;-69
2023/05/31 06:46:53;;;;;;;1.90;1.00;;;17.60;50.10;;;;;;5120427;27;20703;-69
2023/05/31 06:49:20;;;;;;;1.83;1.30;;;17.70;50.10;;;;;;5116327;27;20635;-69
2023/05/31 06:51:46;;;;;;;1.47;0.83;;;17.90;49.40;;;;;;5117075;27;20675;-69
2023/05/31 06:54:14;;;;;;;1.47;1.23;;;18.00;49.60;;;;;;5119551;27;20630;-69
2023/05/31 06:56:41;;;;;;;1.33;1.00;;;18.00;48.90;;;;;;5120096;27;20656;-69
2023/05/31 06:59:08;;;;;;;1.10;1.10;;;18.10;49.00;;;;;;5113567;27;20666;-69
2023/05/31 07:01:35;;;;;;;1.13;0.97;;;18.30;48.70;;;;;;5118211;27;20646;-67
2023/05/31 07:04:02;;;;;;;1.47;1.37;;;18.20;49.20;;;;;;5120462;27;20632;-68
2023/05/31 07:06:29;;;;;;;1.20;1.10;;;18.20;48.70;;;;;;5117356;27;20643;-68
2023/05/31 07:08:56;;;;;;;1.10;0.97;;;18.50;49.20;;;;;;5116839;27;20627;-68
2023/05/31 07:11:26;;;;;;;1.90;1.10;;;18.40;48.70;;;;;;5117285;27;20676;-68
2023/05/31 07:13:54;;;;;;;6.00;1.00;;;18.50;49.20;;;;;;5120109;27;20629;-68
2023/05/31 07:16:20;;;;;;;1.00;0.73;;;18.70;48.60;;;;;;5119088;27;20678;-68
2023/05/31 07:18:47;;;;;;;1.43;1.33;;;18.50;48.10;;;;;;5116112;27;20608;-69
2023/05/31 07:21:14;;;;;;;1.13;1.03;;;18.60;49.10;;;;;;5116453;27;20750;-68
2023/05/31 07:23:41;;;;;;;2.60;1.13;;;19.00;49.00;;;;;;5118391;27;20625;-68
2023/05/31 07:26:08;;;;;;;3.73;1.43;;;19.10;47.80;;;;;;5119915;27;20634;-68
2023/05/31 07:28:36;;;;;;;2.20;1.13;;;19.00;48.80;;;;;;5119722;27;20702;-68
2023/05/31 07:31:03;;;;;;;1.73;1.30;;;19.10;48.90;;;;;;5114406;27;21496;-68
2023/05/31 07:33:30;;;;;;;1.23;1.13;;;19.30;48.60;;;;;;5116135;27;20623;-68
2023/05/31 07:35:59;;;;;;;3.90;1.33;;;19.30;49.40;;;;;;5118942;27;20651;-68
2023/05/31 07:38:26;;;;;;;1.97;1.40;;;19.40;48.80;;;;;;5119464;27;20623;-68
2023/05/31 07:40:53;;;;;;;2.00;1.27;;;19.50;49.10;;;;;;5117686;27;21218;-68
2023/05/31 07:43:21;;;;;;;1.90;1.77;;;19.70;49.10;;;;;;5115938;27;20623;-68
2023/05/31 07:45:49;;;;;;;1.73;1.13;;;19.70;48.50;;;;;;5116425;27;20983;-68
2023/05/31 07:48:17;;;;;;;1.47;1.10;;;19.80;48.40;;;;;;5119759;27;20727;-68
2023/05/31 07:50:44;;;;;;;4.03;1.13;;;19.90;48.70;;;;;;5118668;27;20675;-68
2023/05/31 07:53:11;;;;;;;1.63;1.53;;;19.90;48.00;;;;;;5118035;27;20630;-68
2023/05/31 07:55:38;;;;;;;3.00;1.23;;;20.00;48.60;;;;;;5115514;28;21034;-68
2023/05/31 07:58:05;;;;;;;1.30;1.17;;;20.10;48.30;;;;;;5116216;28;21514;-68
2023/05/31 08:00:32;;;;;;;1.77;1.50;;;20.20;47.90;;;;;;5117166;28;20756;-68
2023/05/31 08:03:00;;;;;;;1.47;1.30;;;20.30;47.40;;;;;;5116624;28;20616;-68
2023/05/31 08:05:27;;;;;;;1.30;1.20;;;20.40;48.20;;;;;;5117660;28;20643;-68
2023/05/31 08:07:54;;;;;;;1.73;1.20;;;20.60;47.00;;;;;;5119436;28;20982;-68
2023/05/31 08:10:20;;;;;;;1.30;1.23;;;20.60;47.90;;;;;;5117058;28;20623;-68
2023/05/31 08:12:47;;;;;;;1.93;1.60;;;20.60;48.50;;;;;;5118661;27;20624;-68
2023/05/31 08:15:14;;;;;;;0.93;0.93;;;20.70;47.90;;;;;;5120229;27;20622;-68
2023/05/31 08:17:42;;;;;;;1.33;1.00;;;20.80;47.90;;;;;;5121292;27;21125;-68
2023/05/31 08:20:13;;;;;;;1.40;1.30;;;20.90;47.60;;;;;;5122517;27;20631;-68
2023/05/31 08:22:42;;;;;;;2.03;1.77;;;20.80;47.00;;;;;;5121588;27;21090;-69
2023/05/31 08:25:12;;;;;;;2.13;1.77;;;20.90;47.20;;;;;;5119735;27;21025;-69
2023/05/31 08:27:40;;;;;;;1.63;1.53;;;21.10;47.00;;;;;;5119803;27;20770;-69
2023/05/31 08:30:09;;;;;;;3.10;1.63;;;21.20;47.60;;;;;;5122868;27;20615;-69
2023/05/31 08:32:36;;;;;;;1.33;1.23;;;21.20;46.80;;;;;;5113509;27;20678;-69
2023/05/31 08:35:03;;;;;;;1.90;1.20;;;21.20;47.70;;;;;;5122873;27;20617;-69
2023/05/31 08:37:31;;;;;;;2.10;1.90;;;21.30;48.60;;;;;;5122093;27;20651;-70
2023/05/31 08:39:58;;;;;;;1.90;1.30;;;21.40;47.60;;;;;;5120585;27;20624;-69
2023/05/31 08:42:28;;;;;;;1.53;1.10;;;21.50;46.80;;;;;;5116966;27;20646;-69
2023/05/31 08:44:56;;;;;;;1.70;1.60;;;21.60;46.70;;;;;;5122394;27;20991;-68
2023/05/31 08:47:28;;;;;;;2.87;1.30;;;21.70;46.80;;;;;;5119613;27;21025;-68
2023/05/31 08:49:56;;;;;;;3.30;1.70;;;21.60;46.40;;;;;;5118417;27;20660;-68
2023/05/31 08:52:23;;;;;;;4.27;1.47;;;21.60;47.40;;;;;;5111669;27;20682;-68
2023/05/31 08:54:53;;;;;;;0.93;0.87;;;21.70;46.80;;;;;;5119905;27;20624;-68
2023/05/31 08:57:21;;;;;;;2.20;1.60;;;21.80;47.10;;;;;;5121484;27;20644;-69
2023/05/31 08:59:50;;;;;;;1.20;1.10;;;21.90;46.60;;;;;;5121989;27;20631;-68
2023/05/31 09:02:17;;;;;;;1.73;1.47;;;21.90;46.20;;;;;;5120720;27;20647;-68
2023/05/31 09:04:45;;;;;;;1.37;1.30;;;22.00;46.10;;;;;;5118885;27;20713;-68
2023/05/31 09:07:11;;;;;;;2.30;2.10;;;22.10;46.00;;;;;;5118954;27;20650;-68
2023/05/31 09:09:38;;;;;;;1.17;1.17;;;22.20;46.30;;;;;;5110584;27;20628;-69
2023/05/31 09:12:07;;;;;;;1.40;1.30;;;22.10;46.40;;;;;;5118592;27;20672;-68
2023/05/31 09:14:34;;;;;;;1.97;1.20;;;22.10;45.60;;;;;;5121400;27;20715;-69
2023/05/31 09:17:01;;;;;;;2.87;1.83;;;22.30;46.70;;;;;;5121403;27;21262;-69
2023/05/31 09:19:28;;;;;;;1.33;1.23;;;22.40;44.90;;;;;;5121146;27;21029;-68
2023/05/31 09:21:55;;;;;;;1.77;1.30;;;22.40;46.90;;;;;;5117543;27;20640;-69
2023/05/31 09:24:22;;;;;;;1.20;1.10;;;22.60;44.80;;;;;;5117911;27;20983;-68
2023/05/31 09:26:50;;;;;;;2.40;1.37;;;22.50;44.60;;;;;;5121267;27;20659;-68
2023/05/31 09:29:20;;;;;;;1.87;1.77;;;22.60;44.40;;;;;;5121327;27;20615;-68
2023/05/31 09:31:47;;;;;;;1.43;1.33;;;22.60;44.40;;;;;;5119807;27;21164;-68
2023/05/31 09:34:26;;;;;;;2.17;1.50;;;22.60;45.60;;;;;;5118688;27;20624;-68
2023/05/31 09:36:57;;;;;;;1.30;1.20;;;22.80;44.40;;;;;;5120335;27;20644;-69
2023/05/31 09:39:23;;;;;;;3.03;1.30;;;22.80;43.60;;;;;;5121255;27;20617;-69
2023/05/31 09:41:51;;;;;;;1.33;1.20;;;22.90;43.80;;;;;;5113752;27;20640;-69
2023/05/31 09:44:19;;;;;;;1.80;1.33;;;23.30;44.60;;;;;;5121366;27;21192;-68
2023/05/31 09:46:47;;;;;;;2.33;2.13;;;23.30;43.70;;;;;;5122113;27;20657;-68
2023/05/31 09:49:14;;;;;;;2.93;2.00;;;23.30;43.30;;;;;;5118088;27;21160;-68
2023/05/31 09:51:41;;;;;;;3.50;1.50;;;23.30;43.20;;;;;;5118083;27;20992;-69
2023/05/31 09:54:17;;;;;;;1.47;1.37;;;23.40;42.50;;;;;;5119935;27;20620;-68
2023/05/31 09:56:44;;;;;;;2.30;1.90;;;23.40;42.90;;;;;;5120684;27;20682;-69
2023/05/31 09:59:12;;;;;;;1.40;1.30;;;23.30;42.60;;;;;;5114594;27;20627;-69
2023/05/31 10:01:40;;;;;;;1.73;1.10;;;23.30;42.30;;;;;;5121499;27;20643;-69
2023/05/31 10:04:07;;;;;;;1.60;1.50;;;23.50;42.40;;;;;;5121714;27;20636;-69
2023/05/31 10:06:35;;;;;;;1.70;1.40;;;23.50;41.40;;;;;;5109015;27;20644;-69
2023/05/31 10:09:03;;;;;;;1.03;0.93;;;23.60;41.40;;;;;;5117106;27;20655;-68
2023/05/31 10:11:34;;;;;;;1.73;1.60;;;23.70;41.70;;;;;;5118786;27;20755;-68
2023/05/31 10:14:04;;;;;;;1.63;1.53;;;23.60;40.90;;;;;;5121254;27;20205;-68
2023/05/31 10:16:36;;;;;;;1.63;1.33;;;23.80;42.30;;;;;;5119784;27;20635;-68
2023/05/31 10:19:10;;;;;;;1.40;1.30;;;23.80;40.60;;;;;;5117126;27;21705;-69
2023/05/31 10:21:43;;;;;;;3.40;2.17;;;23.80;42.70;;;;;;5117028;27;21257;-69
2023/05/31 10:24:15;;;;;;;2.90;1.60;;;24.00;43.00;;;;;;5120100;27;21194;-69
2023/05/31 10:26:49;;;;;;;1.30;1.20;;;24.00;42.30;;;;;;5119519;27;20663;-69
2023/05/31 10:29:19;;;;;;;1.20;1.00;;;23.90;42.00;;;;;;5116786;27;21174;-69
2023/05/31 10:31:50;;;;;;;1.50;1.40;;;23.90;41.70;;;;;;5118623;27;20758;-69
2023/05/31 10:34:23;;;;;;;1.43;1.17;;;24.00;41.30;;;;;;5119589;27;20623;-69
2023/05/31 10:36:51;;;;;;;1.50;1.40;;;24.10;41.90;;;;;;5118458;27;20651;-69
2023/05/31 10:39:27;;;;;;;1.80;1.20;;;24.10;41.40;;;;;;5116309;27;20675;-69
2023/05/31 10:42:02;;;;;;;1.97;1.40;;;24.10;41.40;;;;;;5117888;27;20655;-68
2023/05/31 10:44:38;;;;;;;1.57;1.23;;;24.20;40.70;;;;;;5120542;27;20714;-69
2023/05/31 10:47:09;;;;;;;1.70;1.60;;;24.30;41.60;;;;;;5118454;27;20661;-69
2023/05/31 10:49:38;;;;;;;1.40;1.30;;;24.20;41.10;;;;;;5116964;27;20600;-69
2023/05/31 10:52:06;;;;;;;1.50;1.40;;;24.60;42.00;;;;;;5118011;27;20675;-69
2023/05/31 10:54:34;;;;;;;1.10;1.00;;;24.80;41.90;;;;;;5119530;27;20620;-69
2023/05/31 10:57:05;;;;;;;1.17;1.07;;;25.00;41.20;;;;;;5119632;27;20651;-69
2023/05/31 10:59:41;;;;;;;2.03;1.17;;;25.10;41.50;;;;;;5106981;27;20637;-69
2023/05/31 11:02:09;;;;;;;7.00;1.87;;;25.00;39.80;;;;;;5119813;27;20704;-69
2023/05/31 11:04:38;;;;;;;1.73;1.60;;;25.10;40.40;;;;;;5117281;27;20624;-69
2023/05/31 11:07:17;;;;;;;1.53;1.43;;;25.30;39.80;;;;;;5108878;27;20662;-68
2023/05/31 11:09:58;;;;;;;3.07;1.47;;;25.70;40.80;;;;;;5107831;27;20707;-68
2023/05/31 11:12:35;;;;;;;2.37;1.63;;;25.70;39.50;;;;;;5115735;27;20687;-69
2023/05/31 11:15:04;;;;;;;1.40;1.27;;;25.70;39.90;;;;;;5120220;27;20623;-68
2023/05/31 11:17:40;;;;;;;1.70;1.60;;;25.90;39.80;;;;;;5118840;27;20626;-68
2023/05/31 11:20:15;;;;;;;3.70;1.77;;;26.00;40.40;;;;;;5115662;27;20611;-68
2023/05/31 11:22:42;;;;;;;2.30;1.77;;;26.10;39.30;;;;;;5119242;27;20623;-68
2023/05/31 11:25:09;;;;;;;1.07;0.97;;;26.10;39.30;;;;;;5119657;27;20611;-69
2023/05/31 11:27:38;;;;;;;1.70;1.57;;;26.20;38.30;;;;;;5119100;27;20615;-69
2023/05/31 11:30:08;;;;;;;2.10;1.70;;;26.40;39.90;;;;;;5115754;27;20624;-68
2023/05/31 11:33:15;;;;;;;2.40;1.53;;;26.70;38.50;;;;;;5116003;27;20717;-69
2023/05/31 11:35:43;;;;;;;1.60;1.50;;;27.10;38.10;;;;;;5113855;27;20784;-69
2023/05/31 11:38:10;;;;;;;3.40;1.43;;;27.20;38.80;;;;;;5119964;27;20619;-69
2023/05/31 11:40:37;;;;;;;3.20;1.33;;;27.20;38.40;;;;;;5118792;27;20650;-68
2023/05/31 11:43:11;;;;;;;1.50;1.30;;;27.60;38.20;;;;;;5116502;27;20679;-69
2023/05/31 11:45:45;;;;;;;1.37;1.27;;;28.00;38.10;;;;;;5116357;27;20641;-69
2023/05/31 11:48:31;;;;;;;2.73;1.57;;;28.30;37.60;;;;;;5117766;27;20682;-69
2023/05/31 11:51:00;;;;;;;2.73;1.67;;;28.70;36.60;;;;;;5118160;27;20661;-69
2023/05/31 11:53:28;;;;;;;1.20;1.20;;;29.00;36.80;;;;;;5114227;27;20664;-69
2023/05/31 11:55:55;;;;;;;2.00;1.57;;;29.40;36.60;;;;;;5116302;28;20659;-67
2023/05/31 11:58:22;;;;;;;1.40;1.30;;;30.10;34.90;;;;;;5118854;28;20625;-68
2023/05/31 12:00:50;;;;;;;1.40;1.23;;;31.10;34.80;;;;;;5115524;28;21277;-69
2023/05/31 12:03:19;;;;;;;1.60;1.47;;;30.80;35.30;;;;;;5116592;28;20731;-69
2023/05/31 12:05:51;;;;;;;2.47;1.70;;;31.80;34.30;;;;;;5118853;28;20651;-68
2023/05/31 12:08:19;;;;;;;1.27;1.17;;;32.40;33.50;;;;;;5118241;27;20961;-69
2023/05/31 12:10:46;;;;;;;1.87;1.20;;;33.30;31.70;;;;;;5115258;28;21231;-68
2023/05/31 12:13:16;;;;;;;1.30;1.20;;;33.20;32.70;;;;;;5115949;28;21015;-69
2023/05/31 12:15:43;;;;;;;1.83;1.60;;;33.70;31.60;;;;;;5108119;28;20743;-68
2023/05/31 12:18:12;;;;;;;1.30;1.13;;;34.00;31.00;;;;;;5115620;28;20612;-69
2023/05/31 12:20:43;;;;;;;1.43;1.17;;;34.10;30.70;;;;;;5115499;28;20644;-69
2023/05/31 12:23:14;;;;;;;1.17;1.17;;;34.10;31.70;;;;;;5116088;27;20712;-69
2023/05/31 12:25:46;;;;;;;0.90;0.90;;;34.30;30.90;;;;;;5117500;28;21534;-69
2023/05/31 12:28:13;;;;;;;1.10;1.00;;;34.70;31.30;;;;;;5119396;27;20619;-69
2023/05/31 12:30:45;;;;;;;1.30;1.20;;;35.00;29.30;;;;;;5116721;28;20655;-70
2023/05/31 12:33:12;;;;;;;1.60;1.50;;;35.10;29.20;;;;;;5115789;28;20666;-69
2023/05/31 12:35:43;;;;;;;3.23;1.60;;;35.40;29.30;;;;;;5115907;28;20693;-68
2023/05/31 12:38:10;;;;;;;1.37;1.27;;;35.40;29.10;;;;;;5108182;28;20630;-69
2023/05/31 12:40:41;;;;;;;1.00;1.00;;;35.50;29.60;;;;;;5115375;28;20646;-68
2023/05/31 12:43:12;;;;;;;1.13;1.13;;;35.50;29.00;;;;;;5116589;28;20620;-68
2023/05/31 12:45:41;;;;;;;1.23;1.13;;;35.70;28.50;;;;;;5115947;28;21310;-69
2023/05/31 12:48:09;;;;;;;2.20;1.47;;;35.80;28.40;;;;;;5118365;28;20627;-69
2023/05/31 12:50:36;;;;;;;1.50;1.40;;;35.60;28.20;;;;;;5118641;27;20635;-68
2023/05/31 12:53:07;;;;;;;1.47;1.33;;;35.70;28.30;;;;;;5117903;28;20630;-69
2023/05/31 12:55:34;;;;;;;1.37;1.10;;;35.90;27.60;;;;;;5115249;28;20648;-69